Athol, ID

12:23 PM PDT on May 22, 2015 (GMT -0700)
Ramsey Estates | | Change Station
CLOSE
Current Station
Personal Weather Station
Location: Rathdrum, ID
Elevation: 2330 ft
Nearby Weather Stations

Elev 2330 ft 47.87 °N, 116.81 °W | Updated 13 seconds ago

Clear
Clear
85.1 °F
Feels Like 82 °F
N
0.0
Wind Variable Wind from SSW
Gusts 2.7 mph

Today
High -- | Low -- °F
--% Chance of Precip.
Yesterday
High -- | Low -- °F
Precip. -- in
5:00 AM 8:27 PM
Waxing Crescent, 23% visible
Pressure 29.83 in
Visibility 10.0 miles
Clouds Clear
Heat Index 82 °F
Dew Point 17 °F
Humidity 8%
Rainfall 0.00 in
Snow Depth Not available.
UV 10 out of 12
Pollen 8.50 out of 12
Air Quality Not available.
Flu Activity No Activity
METAR KCOE 221855Z AUTO 00000KT 10SM CLR 25/08 A2983 RMK AO1

More Conditions Fewer Conditions

Pressure 29.83 in
Visibility 10.0 miles
Clouds Clear
Heat Index 82 °F
Dew Point 17 °F
Humidity 8%
Rainfall 0.00 in
Snow Depth Not available.
UV 10 out of 12
Pollen 8.50 out of 12
Air Quality Not available.
Flu Activity No Activity
METAR KCOE 221855Z AUTO 00000KT 10SM CLR 25/08 A2983 RMK AO1

More Conditions Fewer Conditions

Nowcast | as of 12:19 PM PDT on May 22, 2015

At 1216 PM PDT...Doppler radar indicated a complex of thunderstorms near Fourth of July Pass...or 10 miles east of Dalton Gardens moving southwest at 20 mph. The main threat will be brief heavy downpours and dangerous lightning. Locations impacted include but not limited to... Coeur D'Alene...Post Falls...Hayden...Dalton Gardens...Hayden Lake... Harrison...Fourth of July Pass...Fernan Lake Village...Huetter...Wolf Creek Campground...beauty creek campground...Rose Lake and Medimont.

×

10-Day Weather Forecast

Almanac

Astronomy

May. 22, 2015 Rise Set
Actual Time
Civil Twilight
Nautical Twilight
Astronomical Twilight
Moon
Length of Visible Light
Length of Day
Tomorrow will be .
, % of the Moon is Illuminated

Today's Extremes

State Highs State Lows

Community

WunderPhotos

Upload Photos

1,823,279 photos uploaded!

WunderBlogs® & News

Nearby

Air Quality

  Air Quality AQ Index Pollutant
Not available.

Snow Depth

Station Depth Elevation

Earthquake Activity

City Distance Mag. Time & Date
Minimum magnitude displayed is 2.5.

Coastal Water Temperatures

Place Temperature

Stations

Nearby Weather Stations

Station Location Temp. Windchill Dew Point Humidity Wind Precip. Elev Updated Type